createdAt,value
2022-11-24T00:06:08.419Z,100193.53
2022-11-24T00:16:14.529Z,100200.47
2022-11-24T00:26:19.216Z,100200.47
2022-11-24T00:36:25.809Z,100212.00
2022-11-24T00:46:29.343Z,100213.69
2022-11-24T00:56:34.816Z,100229.75
2022-11-24T01:06:37.979Z,100234.94
2022-11-24T01:16:42.249Z,100241.13
2022-11-24T01:26:45.474Z,100246.72
2022-11-24T01:36:49.799Z,100260.22
2022-11-24T01:46:56.291Z,100264.53
2022-11-24T01:57:07.730Z,100269.72
2022-11-24T02:07:12.556Z,100291.97
2022-11-24T02:17:16.864Z,100294.44
2022-11-24T02:27:21.591Z,100305.19
2022-11-24T02:37:24.502Z,100303.41
2022-11-24T02:47:29.345Z,100314.69
2022-11-24T02:57:32.529Z,100325.94
2022-11-24T03:07:36.839Z,100336.06
2022-11-24T03:17:39.866Z,100344.16
2022-11-24T03:27:44.179Z,100349.28
2022-11-24T03:37:47.089Z,100347.50
2022-11-24T03:47:52.916Z,100350.00
2022-11-24T03:57:55.825Z,100343.09
2022-11-24T04:08:03.010Z,100362.53
2022-11-24T04:18:06.148Z,100379.91
2022-11-24T04:28:11.225Z,100407.34
2022-11-24T04:38:14.191Z,100413.59
2022-11-24T04:48:38.530Z,100430.69
2022-11-24T04:58:41.452Z,100422.53
2022-11-24T05:08:48.047Z,100419.31
2022-11-24T05:18:51.109Z,100439.16
2022-11-24T05:28:55.497Z,100446.09
2022-11-24T05:38:58.478Z,100456.63
2022-11-24T05:49:02.802Z,100464.84
2022-11-24T05:59:09.804Z,100493.94
2022-11-24T06:09:14.667Z,100510.75
2022-11-24T06:19:17.644Z,100521.44
2022-11-24T06:29:22.109Z,100549.34
2022-11-24T06:39:25.020Z,100561.88
2022-11-24T06:49:29.345Z,100590.69
2022-11-24T06:59:32.348Z,100613.59
2022-11-24T07:09:36.759Z,100650.25
2022-11-24T07:19:39.674Z,100668.53
2022-11-24T07:29:43.959Z,100682.28
2022-11-24T07:39:46.920Z,100696.19
2022-11-24T07:49:51.247Z,100712.59
2022-11-24T07:59:54.224Z,100723.16
2022-11-24T08:09:58.522Z,100743.38
2022-11-24T08:20:01.510Z,100753.03
2022-11-24T08:30:06.788Z,100771.94
2022-11-24T08:40:10.967Z,100787.56
2022-11-24T08:50:15.339Z,100814.97
2022-11-24T09:00:23.842Z,100831.88
2022-11-24T09:10:28.208Z,100837.91
2022-11-24T09:20:31.152Z,100857.78
2022-11-24T09:30:35.524Z,100871.50
2022-11-24T09:40:38.749Z,100882.16
2022-11-24T09:50:45.316Z,100888.88
2022-11-24T10:00:51.603Z,100897.09
2022-11-24T10:11:00.733Z,100918.94
2022-11-24T10:21:16.150Z,100927.50
2022-11-24T10:31:26.049Z,100940.34
2022-11-24T10:41:39.941Z,100952.00
2022-11-24T10:51:52.190Z,100950.91
2022-11-24T11:01:56.761Z,100946.41
2022-11-24T11:12:36.226Z,100943.81
2022-11-24T11:22:38.021Z,100943.00
2022-11-24T11:43:26.793Z,100944.16
2022-11-24T11:53:45.048Z,100955.47
2022-11-24T12:04:00.165Z,100941.91
2022-11-24T12:14:11.967Z,100950.91
2022-11-24T12:24:22.283Z,100950.41
2022-11-24T12:34:36.586Z,100955.97
2022-11-24T12:44:58.710Z,100951.09
2022-11-24T12:55:04.886Z,100958.75
2022-11-24T13:05:20.032Z,100960.41
2022-11-24T13:15:45.258Z,100944.59
2022-11-24T13:26:15.454Z,100951.38
2022-11-24T13:36:36.013Z,100952.81
2022-11-24T13:47:04.757Z,100947.25
2022-11-24T13:57:35.486Z,100943.00
2022-11-24T14:07:43.072Z,100938.44
2022-11-24T14:17:50.692Z,100927.84
2022-11-24T14:27:54.546Z,100922.34
2022-11-24T14:38:00.199Z,100922.53
2022-11-24T14:48:03.716Z,100936.41
2022-11-24T14:58:21.995Z,100951.59
2022-11-24T15:08:32.189Z,100961.16
2022-11-24T15:18:43.015Z,100961.91
2022-11-24T15:28:47.665Z,100967.13
2022-11-24T15:38:52.452Z,100964.69
2022-11-24T15:48:55.739Z,100975.56
2022-11-24T15:59:00.148Z,100962.53
2022-11-24T16:09:03.076Z,100964.25
2022-11-24T16:19:07.549Z,100962.56
2022-11-24T16:29:10.507Z,100968.63
2022-11-24T16:39:14.770Z,100968.06
2022-11-24T16:49:17.861Z,100964.38
2022-11-24T16:59:22.233Z,100961.59
2022-11-24T17:09:25.270Z,100971.47
2022-11-24T17:19:31.691Z,100967.34
2022-11-24T17:29:34.633Z,100977.03
2022-11-24T17:39:38.985Z,100987.13
2022-11-24T17:49:41.917Z,100988.59
2022-11-24T17:59:46.251Z,100974.88
2022-11-24T18:09:49.304Z,100963.66
2022-11-24T18:19:53.624Z,100946.22
2022-11-24T18:29:56.570Z,100963.41
2022-11-24T18:40:01.328Z,100959.72
2022-11-24T18:50:04.662Z,100955.03
2022-11-24T19:00:11.279Z,100947.00
2022-11-24T19:10:16.006Z,100947.84
2022-11-24T19:20:20.475Z,100950.66
2022-11-24T19:30:23.456Z,100935.19
2022-11-24T19:40:27.769Z,100947.66
2022-11-24T19:50:30.675Z,100940.81
2022-11-24T20:00:35.038Z,100926.56
2022-11-24T20:10:42.353Z,100929.19
2022-11-24T20:20:46.690Z,100934.91
2022-11-24T20:30:49.608Z,100936.31
2022-11-24T20:40:53.987Z,100934.38
2022-11-24T20:50:57.007Z,100928.25
2022-11-24T21:01:06.355Z,100931.09
2022-11-24T21:11:11.434Z,100917.38
2022-11-24T21:21:15.572Z,100919.91
2022-11-24T21:31:20.873Z,100912.38
2022-11-24T21:41:27.331Z,100897.19
2022-11-24T21:51:30.599Z,100891.00
2022-11-24T22:01:35.096Z,100884.66
2022-11-24T22:11:38.065Z,100868.31
2022-11-24T22:21:42.360Z,100864.25
2022-11-24T22:31:45.357Z,100860.13
2022-11-24T22:41:49.741Z,100855.03
2022-11-24T22:51:52.673Z,100851.59
2022-11-24T23:01:56.962Z,100849.56
2022-11-24T23:11:59.909Z,100846.50
2022-11-24T23:22:04.245Z,100845.22
2022-11-24T23:32:07.517Z,100827.88
2022-11-24T23:42:11.784Z,100834.41
2022-11-24T23:52:14.694Z,100824.88
